Time,TemperatureF,DewpointF,PressureIn,WindDirection,WindDirectionDegrees,WindSpeedMPH,WindSpeedGustMPH,Humidity,HourlyPrecipIn,Conditions,Clouds,dailyrainin,SoftwareType,DateUTC
2013-01-14 00:00:00,19.2,16.5,30.27,NNW,327,3.0,5.0,89,0.00,,CLR,0.00,VWS V14.01,2013-01-14 06:00:00,
2013-01-14 00:05:00,19.2,16.5,30.27,NW,317,1.0,6.0,89,0.00,,CLR,0.00,VWS V14.01,2013-01-14 06:05:00,
2013-01-14 00:10:00,19.1,16.4,30.28,NW,316,4.0,6.0,89,0.00,,CLR,0.00,VWS V14.01,2013-01-14 06:10:00,
2013-01-14 00:16:00,19.1,16.4,30.28,NW,305,1.0,6.0,89,0.00,,CLR,0.00,VWS V14.01,2013-01-14 06:16:00,
2013-01-14 00:21:00,19.1,16.4,30.28,NW,304,1.0,6.0,89,0.00,,CLR,0.00,VWS V14.01,2013-01-14 06:21:00,
2013-01-14 00:26:00,19.0,16.3,30.28,WNW,290,2.0,6.0,89,0.00,,CLR,0.00,VWS V14.01,2013-01-14 06:26:00,
2013-01-14 00:30:00,18.2,15.5,30.30,WNW,292,0.0,5.0,89,0.00,,CLR,0.00,VWS V14.01,2013-01-14 06:30:00,
2013-01-14 00:31:00,18.9,16.2,30.28,NW,309,0.0,2.0,89,0.00,,CLR,0.00,VWS V14.01,2013-01-14 06:31:00,
2013-01-14 00:36:00,18.9,16.2,30.28,NW,309,2.0,5.0,89,0.00,,CLR,0.00,VWS V14.01,2013-01-14 06:36:00,
2013-01-14 00:41:00,18.8,16.1,30.28,NW,321,1.0,5.0,89,0.00,,CLR,0.00,VWS V14.01,2013-01-14 06:41:00,
2013-01-14 00:46:00,18.8,16.1,30.28,NW,321,1.0,5.0,89,0.00,,CLR,0.00,VWS V14.01,2013-01-14 06:46:00,
2013-01-14 00:51:00,18.8,16.1,30.28,WNW,301,1.0,5.0,89,0.00,,CLR,0.00,VWS V14.01,2013-01-14 06:51:00,
2013-01-14 00:57:00,18.7,16.0,30.28,WNW,303,3.0,6.0,89,0.00,,CLR,0.00,VWS V14.01,2013-01-14 06:57:00,
2013-01-14 01:00:00,17.9,15.2,30.31,NW,315,1.0,4.0,89,0.00,,CLR,0.00,VWS V14.01,2013-01-14 07:00:00,
2013-01-14 01:02:00,18.6,15.9,30.28,NW,321,1.0,3.0,89,0.00,,CLR,0.00,VWS V14.01,2013-01-14 07:02:00,
2013-01-14 01:07:00,18.5,15.8,30.29,NNW,331,3.0,5.0,89,0.00,,CLR,0.00,VWS V14.01,2013-01-14 07:07:00,
2013-01-14 01:12:00,18.5,15.8,30.29,NNW,341,0.0,5.0,89,0.00,,CLR,0.00,VWS V14.01,2013-01-14 07:12:00,
2013-01-14 01:17:00,18.4,15.7,30.30,WNW,296,0.0,5.0,89,0.00,,CLR,0.00,VWS V14.01,2013-01-14 07:17:00,
2013-01-14 01:22:00,18.3,15.6,30.30,NNW,341,2.0,5.0,89,0.00,,CLR,0.00,VWS V14.01,2013-01-14 07:22:00,
2013-01-14 01:28:00,18.2,15.5,30.30,NNW,329,2.0,5.0,89,0.00,,CLR,0.00,VWS V14.01,2013-01-14 07:28:00,
2013-01-14 01:30:00,17.4,15.0,30.32,NW,321,2.0,3.0,90,0.00,,CLR,0.00,VWS V14.01,2013-01-14 07:30:00,
2013-01-14 01:33:00,18.2,15.5,30.30,NW,319,2.0,3.0,89,0.00,,CLR,0.00,VWS V14.01,2013-01-14 07:33:00,
2013-01-14 01:38:00,18.1,15.4,30.30,NW,309,1.0,3.0,89,0.00,,CLR,0.00,VWS V14.01,2013-01-14 07:38:00,
2013-01-14 01:43:00,18.1,15.4,30.30,NW,323,2.0,4.0,89,0.00,,CLR,0.00,VWS V14.01,2013-01-14 07:43:00,
2013-01-14 01:48:00,18.0,15.3,30.30,NNW,327,0.0,4.0,89,0.00,,CLR,0.00,VWS V14.01,2013-01-14 07:48:00,
2013-01-14 01:53:00,18.0,15.3,30.31,NW,325,1.0,4.0,89,0.00,,CLR,0.00,VWS V14.01,2013-01-14 07:53:00,
2013-01-14 01:58:00,17.9,15.2,30.31,WNW,296,2.0,4.0,89,0.00,,CLR,0.00,VWS V14.01,2013-01-14 07:58:00,
2013-01-14 02:00:00,17.0,14.6,30.31,NW,308,2.0,3.0,90,0.00,,CLR,0.00,VWS V14.01,2013-01-14 08:00:00,
2013-01-14 02:03:00,17.9,15.2,30.32,NW,315,0.0,2.0,89,0.00,,CLR,0.00,VWS V14.01,2013-01-14 08:03:00,
2013-01-14 02:08:00,17.8,15.1,30.32,NW,315,0.0,2.0,89,0.00,,CLR,0.00,VWS V14.01,2013-01-14 08:08:00,
2013-01-14 02:13:00,17.7,15.0,30.32,NW,315,0.0,2.0,89,0.00,,CLR,0.00,VWS V14.01,2013-01-14 08:13:00,
2013-01-14 02:19:00,17.6,14.9,30.32,NW,309,0.0,2.0,89,0.00,,CLR,0.00,VWS V14.01,2013-01-14 08:19:00,
2013-01-14 02:24:00,17.5,14.8,30.32,NW,311,0.0,3.0,89,0.00,,CLR,0.00,VWS V14.01,2013-01-14 08:24:00,
2013-01-14 02:29:00,17.4,15.0,30.32,NW,308,1.0,3.0,90,0.00,,CLR,0.00,VWS V14.01,2013-01-14 08:29:00,
2013-01-14 02:30:00,16.5,14.1,30.31,NW,309,0.0,3.0,90,0.00,,CLR,0.00,VWS V14.01,2013-01-14 08:30:00,
2013-01-14 02:34:00,17.3,14.6,30.31,NW,313,1.0,3.0,89,0.00,,CLR,0.00,VWS V14.01,2013-01-14 08:34:00,
2013-01-14 02:39:00,17.2,14.8,30.31,WNW,296,1.0,3.0,90,0.00,,CLR,0.00,VWS V14.01,2013-01-14 08:39:00,
2013-01-14 02:45:00,17.1,14.7,30.31,NNW,339,1.0,3.0,90,0.00,,CLR,0.00,VWS V14.01,2013-01-14 08:45:00,
2013-01-14 02:50:00,17.1,14.7,30.31,NW,304,2.0,3.0,90,0.00,,CLR,0.00,VWS V14.01,2013-01-14 08:50:00,
2013-01-14 02:55:00,17.1,14.7,30.31,NNW,329,3.0,3.0,90,0.00,,CLR,0.00,VWS V14.01,2013-01-14 08:55:00,
2013-01-14 03:00:00,17.0,14.6,30.31,NW,308,2.0,3.0,90,0.00,,CLR,0.00,VWS V14.01,2013-01-14 09:00:00,
2013-01-14 03:05:00,16.9,14.5,30.31,NW,304,1.0,3.0,90,0.00,,CLR,0.00,VWS V14.01,2013-01-14 09:05:00,
2013-01-14 03:10:00,16.8,14.4,30.31,NW,306,1.0,3.0,90,0.00,,CLR,0.00,VWS V14.01,2013-01-14 09:10:00,
2013-01-14 03:15:00,16.7,14.3,30.31,NW,306,0.0,3.0,90,0.00,,CLR,0.00,VWS V14.01,2013-01-14 09:15:00,
2013-01-14 03:20:00,16.7,14.3,30.31,NW,307,2.0,3.0,90,0.00,,CLR,0.00,VWS V14.01,2013-01-14 09:20:00,
2013-01-14 03:25:00,16.6,14.2,30.31,NW,322,1.0,3.0,90,0.00,,CLR,0.00,VWS V14.01,2013-01-14 09:25:00,
2013-01-14 03:30:00,16.1,13.7,30.30,NW,313,0.0,2.0,90,0.00,,CLR,0.00,VWS V14.01,2013-01-14 09:30:00,
2013-01-14 03:31:00,16.5,14.1,30.31,NW,309,0.0,0.0,90,0.00,,CLR,0.00,VWS V14.01,2013-01-14 09:31:00,
2013-01-14 03:36:00,16.4,14.0,30.30,NW,304,1.0,1.0,90,0.00,,CLR,0.00,VWS V14.01,2013-01-14 09:36:00,
2013-01-14 03:41:00,16.4,14.0,30.31,NW,304,1.0,1.0,90,0.00,,CLR,0.00,VWS V14.01,2013-01-14 09:41:00,
2013-01-14 03:46:00,16.4,14.0,30.30,NNW,333,0.0,1.0,90,0.00,,CLR,0.00,VWS V14.01,2013-01-14 09:46:00,
2013-01-14 03:51:00,16.4,14.0,30.31,WNW,303,0.0,3.0,90,0.00,,CLR,0.00,VWS V14.01,2013-01-14 09:51:00,
2013-01-14 03:56:00,16.4,14.0,30.31,NW,311,3.0,3.0,90,0.00,,CLR,0.00,VWS V14.01,2013-01-14 09:56:00,
2013-01-14 04:00:00,15.8,13.4,30.29,NW,313,0.0,0.0,90,0.00,,CLR,0.00,VWS V14.01,2013-01-14 10:00:00,
2013-01-14 04:02:00,16.4,14.0,30.30,NW,317,0.0,1.0,90,0.00,,CLR,0.00,VWS V14.01,2013-01-14 10:02:00,
2013-01-14 04:07:00,16.4,13.7,30.30,NW,311,0.0,2.0,89,0.00,,CLR,0.00,VWS V14.01,2013-01-14 10:07:00,
2013-01-14 04:12:00,16.3,13.6,30.29,NW,326,0.0,2.0,89,0.00,,CLR,0.00,VWS V14.01,2013-01-14 10:12:00,
2013-01-14 04:17:00,16.2,13.5,30.29,NW,313,0.0,2.0,89,0.00,,CLR,0.00,VWS V14.01,2013-01-14 10:17:00,
2013-01-14 04:22:00,16.2,13.5,30.29,NW,313,0.0,2.0,89,0.00,,CLR,0.00,VWS V14.01,2013-01-14 10:22:00,
2013-01-14 04:27:00,16.1,13.7,30.29,NW,313,0.0,2.0,90,0.00,,CLR,0.00,VWS V14.01,2013-01-14 10:27:00,
2013-01-14 04:30:00,15.7,13.0,30.28,NW,313,0.0,0.0,89,0.00,,CLR,0.00,VWS V14.01,2013-01-14 10:30:00,
2013-01-14 04:32:00,16.0,13.6,30.29,NW,313,0.0,0.0,90,0.00,,CLR,0.00,VWS V14.01,2013-01-14 10:32:00,
2013-01-14 04:37:00,16.0,13.3,30.29,NW,313,0.0,0.0,89,0.00,,CLR,0.00,VWS V14.01,2013-01-14 10:37:00,
2013-01-14 04:42:00,15.9,13.2,30.29,NW,313,0.0,0.0,89,0.00,,CLR,0.00,VWS V14.01,2013-01-14 10:42:00,
2013-01-14 04:47:00,15.9,13.2,30.30,NW,313,0.0,0.0,89,0.00,,CLR,0.00,VWS V14.01,2013-01-14 10:47:00,
2013-01-14 04:52:00,15.9,13.5,30.29,NW,313,0.0,0.0,90,0.00,,CLR,0.00,VWS V14.01,2013-01-14 10:52:00,
2013-01-14 04:57:00,15.9,13.5,30.29,NW,313,0.0,0.0,90,0.00,,CLR,0.00,VWS V14.01,2013-01-14 10:57:00,
2013-01-14 05:00:00,15.6,13.2,30.29,NW,313,0.0,3.0,90,0.00,,CLR,0.00,VWS V14.01,2013-01-14 11:00:00,
2013-01-14 05:03:00,15.8,13.4,30.29,NW,313,0.0,0.0,90,0.00,,CLR,0.00,VWS V14.01,2013-01-14 11:03:00,
2013-01-14 05:08:00,15.8,13.4,30.28,NW,313,0.0,0.0,90,0.00,,CLR,0.00,VWS V14.01,2013-01-14 11:08:00,
2013-01-14 05:13:00,15.8,13.1,30.28,NW,313,0.0,0.0,89,0.00,,CLR,0.00,VWS V14.01,2013-01-14 11:13:00,
2013-01-14 05:18:00,15.8,13.1,30.28,NW,313,0.0,0.0,89,0.00,,CLR,0.00,VWS V14.01,2013-01-14 11:18:00,
2013-01-14 05:23:00,15.7,13.0,30.28,NW,313,0.0,0.0,89,0.00,,CLR,0.00,VWS V14.01,2013-01-14 11:23:00,
2013-01-14 05:28:00,15.7,13.0,30.28,NW,313,0.0,0.0,89,0.00,,CLR,0.00,VWS V14.01,2013-01-14 11:28:00,
2013-01-14 05:30:00,15.5,12.8,30.31,WNW,297,0.0,2.0,89,0.00,,CLR,0.00,VWS V14.01,2013-01-14 11:30:00,
2013-01-14 05:33:00,15.7,13.0,30.28,NW,313,0.0,1.0,89,0.00,,CLR,0.00,VWS V14.01,2013-01-14 11:33:00,
2013-01-14 05:38:00,15.7,13.0,30.28,NW,326,0.0,2.0,89,0.00,,CLR,0.00,VWS V14.01,2013-01-14 11:38:00,
2013-01-14 05:44:00,15.6,12.9,30.28,NW,321,0.0,2.0,89,0.00,,CLR,0.00,VWS V14.01,2013-01-14 11:44:00,
2013-01-14 05:49:00,15.5,12.8,30.27,NNW,328,0.0,2.0,89,0.00,,CLR,0.00,VWS V14.01,2013-01-14 11:49:00,
2013-01-14 05:54:00,15.5,12.8,30.27,NW,325,0.0,3.0,89,0.00,,CLR,0.00,VWS V14.01,2013-01-14 11:54:00,
2013-01-14 05:59:00,15.6,13.2,30.28,NW,313,1.0,3.0,90,0.00,,CLR,0.00,VWS V14.01,2013-01-14 11:59:00,
2013-01-14 06:00:00,15.5,12.8,30.32,NW,318,0.0,2.0,89,0.00,,CLR,0.00,VWS V14.01,2013-01-14 12:00:00,
2013-01-14 06:04:00,15.6,12.9,30.29,NW,313,0.0,1.0,89,0.00,,CLR,0.00,VWS V14.01,2013-01-14 12:04:00,
2013-01-14 06:09:00,15.6,12.9,30.29,NW,313,0.0,1.0,89,0.00,,CLR,0.00,VWS V14.01,2013-01-14 12:09:00,
2013-01-14 06:14:00,15.5,12.8,30.29,NW,313,1.0,2.0,89,0.00,,CLR,0.00,VWS V14.01,2013-01-14 12:14:00,
2013-01-14 06:20:00,15.5,12.8,30.30,NNW,329,0.0,2.0,89,0.00,,CLR,0.00,VWS V14.01,2013-01-14 12:20:00,
2013-01-14 06:25:00,15.5,12.8,30.31,WNW,297,0.0,2.0,89,0.00,,CLR,0.00,VWS V14.01,2013-01-14 12:25:00,
2013-01-14 06:30:00,15.5,12.8,30.31,WNW,297,0.0,2.0,89,0.00,,CLR,0.00,VWS V14.01,2013-01-14 12:30:00,
2013-01-14 06:35:00,15.4,12.7,30.32,WNW,297,0.0,1.0,89,0.00,,CLR,0.00,VWS V14.01,2013-01-14 12:35:00,
2013-01-14 06:40:00,15.4,12.7,30.32,WNW,297,0.0,1.0,89,0.00,,CLR,0.00,VWS V14.01,2013-01-14 12:40:00,
2013-01-14 06:45:00,15.4,12.7,30.33,WNW,297,0.0,1.0,89,0.00,,CLR,0.00,VWS V14.01,2013-01-14 12:45:00,
2013-01-14 06:50:00,15.4,12.7,30.33,WNW,297,0.0,1.0,89,0.00,,CLR,0.00,VWS V14.01,2013-01-14 12:50:00,
2013-01-14 06:56:00,15.5,12.8,30.32,WNW,297,0.0,1.0,89,0.00,,CLR,0.00,VWS V14.01,2013-01-14 12:56:00,
2013-01-14 07:00:00,16.9,14.0,30.35,NNW,337,2.0,4.0,88,0.00,,CLR,0.00,VWS V14.01,2013-01-14 13:00:00,
2013-01-14 07:01:00,15.6,12.9,30.32,NW,318,0.0,1.0,89,0.00,,CLR,0.00,VWS V14.01,2013-01-14 13:01:00,
2013-01-14 07:06:00,15.6,12.9,30.31,NW,318,0.0,1.0,89,0.00,,CLR,0.00,VWS V14.01,2013-01-14 13:06:00,
2013-01-14 07:11:00,15.5,12.8,30.31,NNW,333,2.0,2.0,89,0.00,,CLR,0.00,VWS V14.01,2013-01-14 13:11:00,
2013-01-14 07:16:00,15.6,12.9,30.32,NW,325,1.0,3.0,89,0.00,,CLR,0.00,VWS V14.01,2013-01-14 13:16:00,
2013-01-14 07:21:00,15.6,12.9,30.32,NW,319,1.0,3.0,89,0.00,,CLR,0.00,VWS V14.01,2013-01-14 13:21:00,
2013-01-14 07:26:00,15.6,12.9,30.31,NW,321,2.0,3.0,89,0.00,,CLR,0.00,VWS V14.01,2013-01-14 13:26:00,
2013-01-14 07:30:00,18.5,15.6,30.39,NW,304,2.0,7.0,88,0.00,,CLR,0.00,VWS V14.01,2013-01-14 13:30:00,
2013-01-14 07:31:00,15.7,13.0,30.30,North,5,2.0,3.0,89,0.00,,CLR,0.00,VWS V14.01,2013-01-14 13:31:00,
2013-01-14 07:36:00,15.8,13.1,30.30,NW,314,1.0,3.0,89,0.00,,CLR,0.00,VWS V14.01,2013-01-14 13:36:00,
2013-01-14 07:42:00,16.0,13.3,30.32,NW,311,0.0,3.0,89,0.00,,CLR,0.00,VWS V14.01,2013-01-14 13:42:00,
2013-01-14 07:47:00,16.2,13.5,30.34,North,10,0.0,3.0,89,0.00,,CLR,0.00,VWS V14.01,2013-01-14 13:47:00,
2013-01-14 07:52:00,16.5,13.8,30.36,NNW,327,1.0,3.0,89,0.00,,CLR,0.00,VWS V14.01,2013-01-14 13:52:00,
2013-01-14 07:57:00,16.7,13.8,30.36,NW,317,2.0,3.0,88,0.00,,CLR,0.00,VWS V14.01,2013-01-14 13:57:00,
2013-01-14 08:00:00,19.7,15.7,30.38,North,355,1.0,5.0,84,0.00,,CLR,0.00,VWS V14.01,2013-01-14 14:00:00,
2013-01-14 08:02:00,17.0,14.1,30.35,WNW,292,2.0,2.0,88,0.00,,CLR,0.00,VWS V14.01,2013-01-14 14:02:00,
2013-01-14 08:07:00,17.2,14.5,30.38,West,270,1.0,3.0,89,0.00,,CLR,0.00,VWS V14.01,2013-01-14 14:07:00,
2013-01-14 08:12:00,17.4,14.5,30.40,West,270,1.0,3.0,88,0.00,,CLR,0.00,VWS V14.01,2013-01-14 14:12:00,
2013-01-14 08:17:00,17.7,15.0,30.38,NNW,331,2.0,6.0,89,0.00,,CLR,0.00,VWS V14.01,2013-01-14 14:17:00,
2013-01-14 08:22:00,18.0,15.3,30.39,WNW,288,1.0,6.0,89,0.00,,CLR,0.00,VWS V14.01,2013-01-14 14:22:00,
2013-01-14 08:28:00,18.4,15.4,30.39,NNW,339,4.0,7.0,88,0.00,,CLR,0.00,VWS V14.01,2013-01-14 14:28:00,
2013-01-14 08:30:00,20.2,15.9,30.42,NW,314,0.0,4.0,83,0.00,,CLR,0.00,VWS V14.01,2013-01-14 14:30:00,
2013-01-14 08:33:00,18.6,15.6,30.39,NNW,332,0.0,3.0,88,0.00,,CLR,0.00,VWS V14.01,2013-01-14 14:33:00,
2013-01-14 08:38:00,18.9,15.7,30.40,North,351,0.0,5.0,87,0.00,,CLR,0.00,VWS V14.01,2013-01-14 14:38:00,
2013-01-14 08:43:00,19.1,15.9,30.37,ENE,59,0.0,5.0,87,0.00,,,0.00,VWS V14.01,2013-01-14 14:43:00,
2013-01-14 08:48:00,19.4,15.9,30.38,North,355,0.0,5.0,86,0.00,,,0.00,VWS V14.01,2013-01-14 14:48:00,
2013-01-14 08:53:00,19.5,15.7,30.37,NNE,15,2.0,5.0,85,0.00,,,0.00,VWS V14.01,2013-01-14 14:53:00,
2013-01-14 08:58:00,19.7,15.7,30.38,NW,316,2.0,5.0,84,0.00,,,0.00,VWS V14.01,2013-01-14 14:58:00,
2013-01-14 09:00:00,20.6,15.7,30.40,NNE,17,3.0,6.0,81,0.00,,CLR,0.00,VWS V14.01,2013-01-14 15:00:00,
2013-01-14 09:03:00,19.7,15.7,30.39,North,355,2.0,2.0,84,0.00,,,0.00,VWS V14.01,2013-01-14 15:03:00,
2013-01-14 09:08:00,19.7,15.7,30.40,NNW,341,0.0,2.0,84,0.00,,,0.00,VWS V14.01,2013-01-14 15:08:00,
2013-01-14 09:14:00,19.8,15.5,30.41,WNW,301,0.0,2.0,83,0.00,,,0.00,VWS V14.01,2013-01-14 15:14:00,
2013-01-14 09:19:00,19.9,15.6,30.41,NW,319,1.0,3.0,83,0.00,,,0.00,VWS V14.01,2013-01-14 15:19:00,
2013-01-14 09:24:00,20.0,15.4,30.42,NNW,338,0.0,4.0,82,0.00,,,0.00,VWS V14.01,2013-01-14 15:24:00,
2013-01-14 09:29:00,20.2,15.9,30.43,NNW,327,2.0,4.0,83,0.00,,,0.00,VWS V14.01,2013-01-14 15:29:00,
2013-01-14 09:30:00,20.9,16.3,30.40,North,5,1.0,6.0,82,0.00,,CLR,0.00,VWS V14.01,2013-01-14 15:30:00,
2013-01-14 09:34:00,20.3,15.7,30.41,NNW,336,0.0,3.0,82,0.00,,,0.00,VWS V14.01,2013-01-14 15:34:00,
2013-01-14 09:39:00,20.4,15.8,30.42,NNW,340,2.0,5.0,82,0.00,,,0.00,VWS V14.01,2013-01-14 15:39:00,
2013-01-14 09:44:00,20.5,15.9,30.42,North,360,2.0,5.0,82,0.00,,,0.00,VWS V14.01,2013-01-14 15:44:00,
2013-01-14 09:49:00,20.6,15.4,30.40,NNE,13,1.0,5.0,80,0.00,,,0.00,VWS V14.01,2013-01-14 15:49:00,
2013-01-14 09:54:00,20.6,15.7,30.39,NNW,333,3.0,5.0,81,0.00,,,0.00,VWS V14.01,2013-01-14 15:54:00,
2013-01-14 10:00:00,20.6,15.7,30.40,NW,305,3.0,6.0,81,0.00,,,0.00,VWS V14.01,2013-01-14 16:00:00,
2013-01-14 10:05:00,20.6,15.7,30.40,NNW,333,0.0,6.0,81,0.00,,,0.00,VWS V14.01,2013-01-14 16:05:00,
2013-01-14 10:10:00,20.6,15.7,30.40,NNW,327,2.0,6.0,81,0.00,,,0.00,VWS V14.01,2013-01-14 16:10:00,
2013-01-14 10:15:00,20.7,16.1,30.40,NE,39,2.0,6.0,82,0.00,,,0.00,VWS V14.01,2013-01-14 16:15:00,
2013-01-14 10:20:00,20.7,16.1,30.40,North,360,3.0,6.0,82,0.00,,,0.00,VWS V14.01,2013-01-14 16:20:00,
2013-01-14 10:25:00,20.8,16.2,30.40,ENE,71,1.0,6.0,82,0.00,,,0.00,VWS V14.01,2013-01-14 16:25:00,
2013-01-14 10:30:00,20.9,16.3,30.40,North,5,0.0,1.0,82,0.00,,,0.00,VWS V14.01,2013-01-14 16:30:00,
2013-01-14 10:35:00,21.0,16.1,30.39,NNE,13,3.0,5.0,81,0.00,,,0.00,VWS V14.01,2013-01-14 16:35:00,
2013-01-14 10:40:00,21.2,16.6,30.39,NE,42,3.0,6.0,82,0.00,,OVC110,0.00,VWS V14.01,2013-01-14 16:40:00,
2013-01-14 10:45:00,21.4,16.8,30.39,North,11,0.0,6.0,82,0.00,,OVC110,0.00,VWS V14.01,2013-01-14 16:45:00,
2013-01-14 10:51:00,21.6,16.7,30.40,NNE,23,3.0,7.0,81,0.00,,OVC110,0.00,VWS V14.01,2013-01-14 16:51:00,
2013-01-14 10:56:00,21.9,16.7,30.39,NE,40,0.0,7.0,80,0.00,,OVC110,0.00,VWS V14.01,2013-01-14 16:56:00,
2013-01-14 11:00:00,23.6,17.2,30.36,NE,40,4.0,9.0,76,0.00,,CLR,0.00,VWS V14.01,2013-01-14 17:00:00,
2013-01-14 11:01:00,22.0,16.8,30.41,ENE,62,0.0,1.0,80,0.00,,OVC110,0.00,VWS V14.01,2013-01-14 17:01:00,
2013-01-14 11:06:00,22.0,16.5,30.40,NW,326,3.0,4.0,79,0.00,,OVC110,0.00,VWS V14.01,2013-01-14 17:06:00,
2013-01-14 11:11:00,22.1,16.9,30.39,North,360,1.0,5.0,80,0.00,,OVC110,0.00,VWS V14.01,2013-01-14 17:11:00,
2013-01-14 11:16:00,22.1,16.6,30.39,NE,49,3.0,6.0,79,0.00,,OVC110,0.00,VWS V14.01,2013-01-14 17:16:00,
2013-01-14 11:21:00,22.3,16.5,30.39,North,360,2.0,7.0,78,0.00,,OVC110,0.00,VWS V14.01,2013-01-14 17:21:00,
2013-01-14 11:26:00,22.5,16.1,30.38,NNW,348,1.0,8.0,76,0.00,,OVC110,0.00,VWS V14.01,2013-01-14 17:26:00,
2013-01-14 11:30:00,26.0,17.2,30.35,North,351,6.0,10.0,69,0.00,,CLR,0.00,VWS V14.01,2013-01-14 17:30:00,
2013-01-14 11:32:00,22.6,16.5,30.37,North,355,2.0,2.0,77,0.00,,OVC110,0.00,VWS V14.01,2013-01-14 17:32:00,
2013-01-14 11:37:00,22.8,16.7,30.37,NNW,343,2.0,8.0,77,0.00,,OVC110,0.00,VWS V14.01,2013-01-14 17:37:00,
2013-01-14 11:42:00,22.9,16.8,30.36,NNE,28,1.0,8.0,77,0.00,,OVC110,0.00,VWS V14.01,2013-01-14 17:42:00,
2013-01-14 11:47:00,23.1,17.0,30.36,NNW,333,3.0,9.0,77,0.00,,OVC110,0.00,VWS V14.01,2013-01-14 17:47:00,
2013-01-14 11:52:00,23.3,16.9,30.36,NW,318,4.0,9.0,76,0.00,,OVC110,0.00,VWS V14.01,2013-01-14 17:52:00,
2013-01-14 11:57:00,23.4,17.0,30.36,East,99,0.0,9.0,76,0.00,,OVC110,0.00,VWS V14.01,2013-01-14 17:57:00,
2013-01-14 12:00:00,27.5,17.6,30.33,North,5,3.0,9.0,66,0.00,,CLR,0.00,VWS V14.01,2013-01-14 18:00:00,
2013-01-14 12:02:00,23.7,17.0,30.36,North,11,4.0,8.0,75,0.00,,OVC110,0.00,VWS V14.01,2013-01-14 18:02:00,
2013-01-14 12:07:00,24.0,16.9,30.35,NNW,339,3.0,8.0,74,0.00,,OVC110,0.00,VWS V14.01,2013-01-14 18:07:00,
2013-01-14 12:12:00,24.5,17.4,30.36,NNW,343,4.0,8.0,74,0.00,,OVC110,0.00,VWS V14.01,2013-01-14 18:12:00,
2013-01-14 12:17:00,24.7,17.0,30.36,NNE,25,5.0,8.0,72,0.00,,OVC110,0.00,VWS V14.01,2013-01-14 18:17:00,
2013-01-14 12:23:00,25.2,17.8,30.35,NNW,341,3.0,8.0,73,0.00,,OVC110,0.00,VWS V14.01,2013-01-14 18:23:00,
2013-01-14 12:28:00,25.8,17.7,30.35,North,355,3.0,10.0,71,0.00,,OVC110,0.00,VWS V14.01,2013-01-14 18:28:00,
2013-01-14 12:30:00,28.5,17.1,30.33,North,9,6.0,11.0,62,0.00,,CLR,0.00,VWS V14.01,2013-01-14 18:30:00,
2013-01-14 12:33:00,26.2,17.8,30.35,NE,37,0.0,7.0,70,0.00,,OVC110,0.00,VWS V14.01,2013-01-14 18:33:00,
2013-01-14 12:38:00,26.5,17.7,30.34,North,11,2.0,7.0,69,0.00,,OVC110,0.00,VWS V14.01,2013-01-14 18:38:00,
2013-01-14 12:43:00,26.7,17.6,30.34,ENE,61,2.0,7.0,68,0.00,,OVC060,0.00,VWS V14.01,2013-01-14 18:43:00,
2013-01-14 12:48:00,27.0,18.2,30.34,NNE,15,5.0,7.0,69,0.00,,OVC060,0.00,VWS V14.01,2013-01-14 18:48:00,
2013-01-14 12:53:00,27.3,17.1,30.33,ENE,68,4.0,9.0,65,0.00,,OVC060,0.00,VWS V14.01,2013-01-14 18:53:00,
2013-01-14 12:59:00,27.5,17.6,30.33,NNE,13,4.0,9.0,66,0.00,,OVC060,0.00,VWS V14.01,2013-01-14 18:59:00,
2013-01-14 13:00:00,29.9,17.3,30.32,NNE,13,1.0,10.0,59,0.00,,CLR,0.00,VWS V14.01,2013-01-14 19:00:00,
2013-01-14 13:04:00,28.0,17.8,30.33,North,360,8.0,8.0,65,0.00,,OVC060,0.00,VWS V14.01,2013-01-14 19:04:00,
2013-01-14 13:09:00,28.3,17.0,30.32,North,5,8.0,11.0,62,0.00,,OVC060,0.00,VWS V14.01,2013-01-14 19:09:00,
2013-01-14 13:14:00,28.2,16.9,30.32,ENE,61,3.0,11.0,62,0.00,,OVC060,0.00,VWS V14.01,2013-01-14 19:14:00,
2013-01-14 13:19:00,28.1,16.8,30.33,ENE,72,3.0,11.0,62,0.00,,OVC060,0.00,VWS V14.01,2013-01-14 19:19:00,
2013-01-14 13:24:00,28.1,17.5,30.33,NE,36,1.0,11.0,64,0.00,,OVC060,0.00,VWS V14.01,2013-01-14 19:24:00,
2013-01-14 13:29:00,28.4,17.4,30.33,NNE,29,1.0,11.0,63,0.00,,OVC060,0.00,VWS V14.01,2013-01-14 19:29:00,
2013-01-14 13:30:00,30.5,16.3,30.31,NNW,329,3.0,9.0,55,0.00,,CLR,0.00,VWS V14.01,2013-01-14 19:30:00,
2013-01-14 13:34:00,28.8,17.4,30.32,North,5,4.0,6.0,62,0.00,,OVC060,0.00,VWS V14.01,2013-01-14 19:34:00,
2013-01-14 13:39:00,29.2,17.4,30.32,NNE,25,1.0,8.0,61,0.00,,OVC060,0.00,VWS V14.01,2013-01-14 19:39:00,
2013-01-14 13:45:00,29.6,17.8,30.33,NNE,32,5.0,8.0,61,0.00,,OVC060,0.00,VWS V14.01,2013-01-14 19:45:00,
2013-01-14 13:50:00,29.9,17.3,30.32,WNW,298,8.0,9.0,59,0.00,,OVC060,0.00,VWS V14.01,2013-01-14 19:50:00,
2013-01-14 13:55:00,29.7,17.5,30.32,NNW,344,5.0,10.0,60,0.00,,OVC060,0.00,VWS V14.01,2013-01-14 19:55:00,
2013-01-14 14:00:00,29.9,17.3,30.32,NNE,26,1.0,10.0,59,0.00,,OVC060,0.00,VWS V14.01,2013-01-14 20:00:00,
2013-01-14 14:05:00,30.2,17.6,30.31,NE,48,0.0,5.0,59,0.00,,OVC060,0.00,VWS V14.01,2013-01-14 20:05:00,
2013-01-14 14:10:00,30.4,16.6,30.31,North,360,0.0,7.0,56,0.00,,OVC060,0.00,VWS V14.01,2013-01-14 20:10:00,
2013-01-14 14:15:00,30.5,17.1,30.31,NNW,327,5.0,7.0,57,0.00,,OVC060,0.00,VWS V14.01,2013-01-14 20:15:00,
2013-01-14 14:20:00,30.7,17.3,30.31,NNE,28,2.0,8.0,57,0.00,,OVC060,0.00,VWS V14.01,2013-01-14 20:20:00,
2013-01-14 14:25:00,30.6,16.4,30.31,NNE,31,3.0,9.0,55,0.00,,OVC060,0.00,VWS V14.01,2013-01-14 20:25:00,
2013-01-14 14:30:00,30.5,16.3,30.30,North,355,5.0,5.0,55,0.00,,OVC060,0.00,VWS V14.01,2013-01-14 20:30:00,
2013-01-14 14:36:00,30.5,16.7,30.31,NNE,28,2.0,9.0,56,0.00,,OVC060,0.00,VWS V14.01,2013-01-14 20:36:00,
2013-01-14 14:41:00,30.6,16.4,30.31,ENE,62,5.0,9.0,55,0.00,,OVC060,0.00,VWS V14.01,2013-01-14 20:41:00,
2013-01-14 14:46:00,30.7,16.9,30.30,ENE,75,1.0,9.0,56,0.00,,OVC060,0.00,VWS V14.01,2013-01-14 20:46:00,
2013-01-14 14:51:00,30.7,16.5,30.30,NNE,13,2.0,9.0,55,0.00,,OVC065,0.00,VWS V14.01,2013-01-14 20:51:00,
2013-01-14 14:56:00,30.5,16.3,30.30,NE,48,3.0,9.0,55,0.00,,OVC065,0.00,VWS V14.01,2013-01-14 20:56:00,
2013-01-14 15:00:00,30.3,15.2,30.29,NNE,17,3.0,8.0,53,0.00,,CLR,0.00,VWS V14.01,2013-01-14 21:00:00,
2013-01-14 15:01:00,30.4,16.6,30.30,East,82,2.0,6.0,56,0.00,,OVC065,0.00,VWS V14.01,2013-01-14 21:01:00,
2013-01-14 15:06:00,30.4,16.6,30.30,WNW,298,1.0,6.0,56,0.00,,OVC065,0.00,VWS V14.01,2013-01-14 21:06:00,
2013-01-14 15:12:00,30.5,15.9,30.30,East,89,1.0,9.0,54,0.00,,OVC065,0.00,VWS V14.01,2013-01-14 21:12:00,
2013-01-14 15:17:00,30.5,15.4,30.30,ENE,65,0.0,9.0,53,0.00,,OVC065,0.00,VWS V14.01,2013-01-14 21:17:00,
2013-01-14 15:22:00,30.5,16.3,30.29,ENE,60,0.0,9.0,55,0.00,,OVC065,0.00,VWS V14.01,2013-01-14 21:22:00,
2013-01-14 15:27:00,30.4,16.2,30.30,NNE,19,4.0,9.0,55,0.00,,OVC065,0.00,VWS V14.01,2013-01-14 21:27:00,
2013-01-14 15:30:00,29.4,15.2,30.29,North,5,2.0,7.0,55,0.00,,CLR,0.00,VWS V14.01,2013-01-14 21:30:00,
2013-01-14 15:32:00,30.4,15.3,30.29,NW,312,2.0,5.0,53,0.00,,OVC065,0.00,VWS V14.01,2013-01-14 21:32:00,
2013-01-14 15:37:00,30.3,15.7,30.29,NNE,24,1.0,5.0,54,0.00,,OVC065,0.00,VWS V14.01,2013-01-14 21:37:00,
2013-01-14 15:42:00,30.3,16.1,30.29,NNE,29,3.0,5.0,55,0.00,,CLR,0.00,VWS V14.01,2013-01-14 21:42:00,
2013-01-14 15:47:00,30.2,15.6,30.29,NNE,12,5.0,7.0,54,0.00,,CLR,0.00,VWS V14.01,2013-01-14 21:47:00,
2013-01-14 15:52:00,30.3,15.7,30.29,NE,39,3.0,8.0,54,0.00,,CLR,0.00,VWS V14.01,2013-01-14 21:52:00,
2013-01-14 15:58:00,30.3,15.2,30.29,NNW,327,1.0,8.0,53,0.00,,CLR,0.00,VWS V14.01,2013-01-14 21:58:00,
2013-01-14 16:00:00,28.3,15.4,30.30,North,5,1.0,7.0,58,0.00,,CLR,0.00,VWS V14.01,2013-01-14 22:00:00,
2013-01-14 16:03:00,30.2,15.6,30.29,North,11,4.0,7.0,54,0.00,,CLR,0.00,VWS V14.01,2013-01-14 22:03:00,
2013-01-14 16:08:00,30.0,15.0,30.29,NNW,327,3.0,7.0,53,0.00,,CLR,0.00,VWS V14.01,2013-01-14 22:08:00,
2013-01-14 16:13:00,29.7,15.5,30.29,WNW,302,0.0,7.0,55,0.00,,CLR,0.00,VWS V14.01,2013-01-14 22:13:00,
2013-01-14 16:18:00,29.6,15.4,30.29,North,5,0.0,7.0,55,0.00,,CLR,0.00,VWS V14.01,2013-01-14 22:18:00,
2013-01-14 16:23:00,29.5,15.3,30.29,ENE,65,3.0,7.0,55,0.00,,CLR,0.00,VWS V14.01,2013-01-14 22:23:00,
2013-01-14 16:28:00,29.4,15.2,30.29,NNW,338,3.0,7.0,55,0.00,,CLR,0.00,VWS V14.01,2013-01-14 22:28:00,
2013-01-14 16:30:00,27.0,15.0,30.29,NNE,25,1.0,5.0,60,0.00,,CLR,0.00,VWS V14.01,2013-01-14 22:30:00,
2013-01-14 16:33:00,29.3,15.1,30.29,North,355,1.0,3.0,55,0.00,,CLR,0.00,VWS V14.01,2013-01-14 22:33:00,
2013-01-14 16:38:00,29.0,15.3,30.29,NW,309,1.0,7.0,56,0.00,,CLR,0.00,VWS V14.01,2013-01-14 22:38:00,
2013-01-14 16:43:00,28.9,15.6,30.29,NNE,28,0.0,7.0,57,0.00,,CLR,0.00,VWS V14.01,2013-01-14 22:43:00,
2013-01-14 16:49:00,28.7,15.4,30.29,NNE,28,0.0,7.0,57,0.00,,CLR,0.00,VWS V14.01,2013-01-14 22:49:00,
2013-01-14 16:54:00,28.5,15.6,30.29,NNW,330,0.0,7.0,58,0.00,,CLR,0.00,VWS V14.01,2013-01-14 22:54:00,
2013-01-14 16:59:00,28.3,15.8,30.30,North,5,0.0,7.0,59,0.00,,CLR,0.00,VWS V14.01,2013-01-14 22:59:00,
2013-01-14 17:00:00,26.0,14.8,30.28,NW,324,3.0,5.0,62,0.00,,CLR,0.00,VWS V14.01,2013-01-14 23:00:00,
2013-01-14 17:04:00,28.1,15.6,30.30,NNW,335,1.0,3.0,59,0.00,,CLR,0.00,VWS V14.01,2013-01-14 23:04:00,
2013-01-14 17:09:00,27.9,15.4,30.29,NNE,17,2.0,5.0,59,0.00,,CLR,0.00,VWS V14.01,2013-01-14 23:09:00,
2013-01-14 17:14:00,27.6,15.2,30.29,North,355,0.0,5.0,59,0.00,,CLR,0.00,VWS V14.01,2013-01-14 23:14:00,
2013-01-14 17:19:00,27.4,15.4,30.29,North,355,1.0,5.0,60,0.00,,CLR,0.00,VWS V14.01,2013-01-14 23:19:00,
2013-01-14 17:24:00,27.2,15.2,30.29,North,355,1.0,5.0,60,0.00,,CLR,0.00,VWS V14.01,2013-01-14 23:24:00,
2013-01-14 17:29:00,27.0,15.0,30.29,NW,310,1.0,5.0,60,0.00,,CLR,0.00,VWS V14.01,2013-01-14 23:29:00,
2013-01-14 17:30:00,25.2,14.4,30.28,NNW,327,3.0,5.0,63,0.00,,CLR,0.00,VWS V14.01,2013-01-14 23:30:00,
2013-01-14 17:34:00,26.9,14.9,30.29,North,5,4.0,5.0,60,0.00,,CLR,0.00,VWS V14.01,2013-01-14 23:34:00,
2013-01-14 17:40:00,26.7,15.1,30.29,NNW,336,1.0,5.0,61,0.00,,CLR,0.00,VWS V14.01,2013-01-14 23:40:00,
2013-01-14 17:45:00,26.5,15.3,30.29,North,360,1.0,5.0,62,0.00,,CLR,0.00,VWS V14.01,2013-01-14 23:45:00,
2013-01-14 17:50:00,26.3,15.4,30.28,North,351,1.0,5.0,63,0.00,,CLR,0.00,VWS V14.01,2013-01-14 23:50:00,
2013-01-14 17:55:00,26.1,14.9,30.28,NW,326,3.0,5.0,62,0.00,,CLR,0.00,VWS V14.01,2013-01-14 23:55:00,
2013-01-14 18:00:00,25.9,14.7,30.28,North,355,2.0,3.0,62,0.00,,CLR,0.00,VWS V14.01,2013-01-15 00:00:00,
2013-01-14 18:05:00,25.8,15.0,30.28,North,355,0.0,3.0,63,0.00,,CLR,0.00,VWS V14.01,2013-01-15 00:05:00,
2013-01-14 18:10:00,25.7,14.9,30.28,NW,315,2.0,3.0,63,0.00,,CLR,0.00,VWS V14.01,2013-01-15 00:10:00,
2013-01-14 18:15:00,25.6,14.8,30.28,NNE,29,0.0,3.0,63,0.00,,CLR,0.00,VWS V14.01,2013-01-15 00:15:00,
2013-01-14 18:20:00,25.4,14.6,30.28,NNE,26,5.0,5.0,63,0.00,,CLR,0.00,VWS V14.01,2013-01-15 00:20:00,
2013-01-14 18:26:00,25.3,14.5,30.28,North,350,2.0,5.0,63,0.00,,CLR,0.00,VWS V14.01,2013-01-15 00:26:00,
2013-01-14 18:30:00,24.1,14.1,30.28,NNE,32,1.0,4.0,65,0.00,,CLR,0.00,VWS V14.01,2013-01-15 00:30:00,
2013-01-14 18:31:00,25.2,14.4,30.28,NNW,336,2.0,3.0,63,0.00,,CLR,0.00,VWS V14.01,2013-01-15 00:31:00,
2013-01-14 18:36:00,25.1,14.3,30.29,NNE,22,2.0,4.0,63,0.00,,CLR,0.00,VWS V14.01,2013-01-15 00:36:00,
2013-01-14 18:41:00,25.0,14.2,30.29,NNE,16,1.0,4.0,63,0.00,,CLR,0.00,VWS V14.01,2013-01-15 00:41:00,
2013-01-14 18:46:00,24.9,14.5,30.29,East,80,0.0,4.0,64,0.00,,CLR,0.00,VWS V14.01,2013-01-15 00:46:00,
2013-01-14 18:51:00,24.8,14.0,30.29,NE,43,0.0,5.0,63,0.00,,CLR,0.00,VWS V14.01,2013-01-15 00:51:00,
2013-01-14 18:56:00,24.7,13.9,30.28,NNE,27,1.0,5.0,63,0.00,,CLR,0.00,VWS V14.01,2013-01-15 00:56:00,
2013-01-14 19:00:00,23.6,14.3,30.29,NNE,26,2.0,5.0,67,0.00,,CLR,0.00,VWS V14.01,2013-01-15 01:00:00,
2013-01-14 19:01:00,24.7,14.3,30.29,NNW,338,0.0,1.0,64,0.00,,CLR,0.00,VWS V14.01,2013-01-15 01:01:00,
2013-01-14 19:07:00,24.6,14.2,30.28,North,9,0.0,2.0,64,0.00,,CLR,0.00,VWS V14.01,2013-01-15 01:07:00,
2013-01-14 19:12:00,24.4,14.0,30.28,NNE,15,0.0,2.0,64,0.00,,CLR,0.00,VWS V14.01,2013-01-15 01:12:00,
2013-01-14 19:17:00,24.4,14.7,30.28,NNW,335,0.0,2.0,66,0.00,,CLR,0.00,VWS V14.01,2013-01-15 01:17:00,
2013-01-14 19:22:00,24.2,14.1,30.28,North,11,3.0,4.0,65,0.00,,CLR,0.00,VWS V14.01,2013-01-15 01:22:00,
2013-01-14 19:27:00,24.2,14.1,30.28,NE,50,0.0,4.0,65,0.00,,CLR,0.00,VWS V14.01,2013-01-15 01:27:00,
2013-01-14 19:30:00,23.2,14.6,30.29,North,9,0.0,3.0,69,0.00,,CLR,0.00,VWS V14.01,2013-01-15 01:30:00,
2013-01-14 19:32:00,24.1,14.1,30.28,NE,40,0.0,1.0,65,0.00,,CLR,0.00,VWS V14.01,2013-01-15 01:32:00,
2013-01-14 19:37:00,24.0,14.3,30.28,NE,40,4.0,4.0,66,0.00,,CLR,0.00,VWS V14.01,2013-01-15 01:37:00,
2013-01-14 19:42:00,23.9,14.2,30.28,North,355,2.0,4.0,66,0.00,,CLR,0.00,VWS V14.01,2013-01-15 01:42:00,
2013-01-14 19:47:00,23.9,14.2,30.28,NE,55,0.0,4.0,66,0.00,,CLR,0.00,VWS V14.01,2013-01-15 01:47:00,
2013-01-14 19:53:00,23.8,14.5,30.28,North,5,2.0,4.0,67,0.00,,CLR,0.00,VWS V14.01,2013-01-15 01:53:00,
2013-01-14 19:58:00,23.7,14.4,30.29,NNE,17,0.0,4.0,67,0.00,,CLR,0.00,VWS V14.01,2013-01-15 01:58:00,
2013-01-14 20:00:00,22.8,14.8,30.29,NNE,17,3.0,4.0,71,0.00,,CLR,0.00,VWS V14.01,2013-01-15 02:00:00,
2013-01-14 20:03:00,23.6,14.3,30.29,NE,54,0.0,2.0,67,0.00,,CLR,0.00,VWS V14.01,2013-01-15 02:03:00,
2013-01-14 20:08:00,23.6,14.6,30.29,NNE,17,0.0,3.0,68,0.00,,CLR,0.00,VWS V14.01,2013-01-15 02:08:00,
2013-01-14 20:13:00,23.5,14.5,30.29,NE,39,0.0,3.0,68,0.00,,CLR,0.00,VWS V14.01,2013-01-15 02:13:00,
2013-01-14 20:18:00,23.4,14.4,30.29,NNE,31,1.0,3.0,68,0.00,,CLR,0.00,VWS V14.01,2013-01-15 02:18:00,
2013-01-14 20:23:00,23.3,14.6,30.29,NNE,19,0.0,3.0,69,0.00,,CLR,0.00,VWS V14.01,2013-01-15 02:23:00,
2013-01-14 20:28:00,23.2,14.6,30.29,NNE,27,0.0,3.0,69,0.00,,CLR,0.00,VWS V14.01,2013-01-15 02:28:00,
2013-01-14 20:30:00,22.3,14.7,30.29,NNE,15,0.0,4.0,72,0.00,,CLR,0.00,VWS V14.01,2013-01-15 02:30:00,
2013-01-14 20:33:00,23.1,14.5,30.29,NNE,17,0.0,1.0,69,0.00,,CLR,0.00,VWS V14.01,2013-01-15 02:33:00,
2013-01-14 20:38:00,23.0,14.4,30.29,North,355,0.0,4.0,69,0.00,,CLR,0.00,VWS V14.01,2013-01-15 02:38:00,
2013-01-14 20:43:00,23.0,14.4,30.29,NNE,15,3.0,4.0,69,0.00,,CLR,0.00,VWS V14.01,2013-01-15 02:43:00,
2013-01-14 20:49:00,22.9,14.6,30.29,NNE,18,0.0,4.0,70,0.00,,CLR,0.00,VWS V14.01,2013-01-15 02:49:00,
2013-01-14 20:54:00,22.9,14.6,30.29,NW,319,1.0,4.0,70,0.00,,CLR,0.00,VWS V14.01,2013-01-15 02:54:00,
2013-01-14 20:59:00,22.8,14.8,30.29,NNE,30,0.0,4.0,71,0.00,,CLR,0.00,VWS V14.01,2013-01-15 02:59:00,
2013-01-14 21:00:00,21.8,14.5,30.28,NNE,14,0.0,2.0,73,0.00,,CLR,0.00,VWS V14.01,2013-01-15 03:00:00,
2013-01-14 21:04:00,22.7,14.4,30.29,NNE,25,0.0,3.0,70,0.00,,CLR,0.00,VWS V14.01,2013-01-15 03:04:00,
2013-01-14 21:09:00,22.7,14.7,30.29,North,350,0.0,3.0,71,0.00,,CLR,0.00,VWS V14.01,2013-01-15 03:09:00,
2013-01-14 21:14:00,22.6,14.6,30.29,NNE,28,0.0,4.0,71,0.00,,CLR,0.00,VWS V14.01,2013-01-15 03:14:00,
2013-01-14 21:19:00,22.5,14.5,30.29,North,5,0.0,4.0,71,0.00,,CLR,0.00,VWS V14.01,2013-01-15 03:19:00,
2013-01-14 21:24:00,22.4,14.4,30.29,NNE,17,0.0,4.0,71,0.00,,CLR,0.00,VWS V14.01,2013-01-15 03:24:00,
2013-01-14 21:29:00,22.3,14.7,30.29,NNE,15,0.0,4.0,72,0.00,,CLR,0.00,VWS V14.01,2013-01-15 03:29:00,
2013-01-14 21:30:00,21.3,14.6,30.29,NW,326,2.0,3.0,75,0.00,,CLR,0.00,VWS V14.01,2013-01-15 03:30:00,
2013-01-14 21:35:00,22.2,14.6,30.29,NNE,18,0.0,2.0,72,0.00,,CLR,0.00,VWS V14.01,2013-01-15 03:35:00,
2013-01-14 21:40:00,22.2,14.6,30.29,NNE,16,0.0,2.0,72,0.00,,CLR,0.00,VWS V14.01,2013-01-15 03:40:00,
2013-01-14 21:45:00,22.1,14.5,30.29,NNE,19,0.0,2.0,72,0.00,,CLR,0.00,VWS V14.01,2013-01-15 03:45:00,
2013-01-14 21:50:00,22.0,14.4,30.29,NNE,17,0.0,2.0,72,0.00,,CLR,0.00,VWS V14.01,2013-01-15 03:50:00,
2013-01-14 21:55:00,21.9,14.6,30.28,North,360,0.0,2.0,73,0.00,,CLR,0.00,VWS V14.01,2013-01-15 03:55:00,
2013-01-14 22:00:00,21.8,14.5,30.28,NNE,14,0.0,2.0,73,0.00,,CLR,0.00,VWS V14.01,2013-01-15 04:00:00,
2013-01-14 22:05:00,21.7,14.7,30.28,NNW,342,0.0,2.0,74,0.00,,CLR,0.00,VWS V14.01,2013-01-15 04:05:00,
2013-01-14 22:10:00,21.6,14.6,30.28,North,5,0.0,2.0,74,0.00,,CLR,0.00,VWS V14.01,2013-01-15 04:10:00,
2013-01-14 22:15:00,21.6,14.6,30.28,NNW,330,2.0,3.0,74,0.00,,CLR,0.00,VWS V14.01,2013-01-15 04:15:00,
2013-01-14 22:20:00,21.5,14.5,30.29,NNW,344,1.0,3.0,74,0.00,,CLR,0.00,VWS V14.01,2013-01-15 04:20:00,
2013-01-14 22:25:00,21.4,14.4,30.29,NNE,22,1.0,3.0,74,0.00,,CLR,0.00,VWS V14.01,2013-01-15 04:25:00,
2013-01-14 22:30:00,20.4,14.6,30.28,NE,37,0.0,2.0,78,0.00,,CLR,0.00,VWS V14.01,2013-01-15 04:30:00,
2013-01-14 22:31:00,21.3,14.6,30.29,NNE,14,1.0,4.0,75,0.00,,CLR,0.00,VWS V14.01,2013-01-15 04:31:00,
2013-01-14 22:36:00,21.2,14.5,30.29,NNW,347,1.0,4.0,75,0.00,,CLR,0.00,VWS V14.01,2013-01-15 04:36:00,
2013-01-14 22:41:00,21.2,14.5,30.29,NNW,336,0.0,4.0,75,0.00,,CLR,0.00,VWS V14.01,2013-01-15 04:41:00,
2013-01-14 22:46:00,21.1,14.7,30.29,North,5,0.0,4.0,76,0.00,,CLR,0.00,VWS V14.01,2013-01-15 04:46:00,
2013-01-14 22:51:00,21.0,14.6,30.29,North,5,1.0,4.0,76,0.00,,CLR,0.00,VWS V14.01,2013-01-15 04:51:00,
2013-01-14 22:56:00,20.9,14.8,30.30,NNW,327,0.0,4.0,77,0.00,,CLR,0.00,VWS V14.01,2013-01-15 04:56:00,
2013-01-14 23:00:00,20.8,14.7,30.29,NW,323,2.0,4.0,77,0.00,,CLR,0.00,VWS V14.01,2013-01-15 05:00:00,
2013-01-14 23:02:00,20.8,14.7,30.30,NNW,334,0.0,0.0,77,0.00,,CLR,0.00,VWS V14.01,2013-01-15 05:02:00,
2013-01-14 23:07:00,20.7,14.6,30.29,North,355,0.0,2.0,77,0.00,,CLR,0.00,VWS V14.01,2013-01-15 05:07:00,
2013-01-14 23:13:00,20.7,14.6,30.29,ENE,59,0.0,2.0,77,0.00,,CLR,0.00,VWS V14.01,2013-01-15 05:13:00,
2013-01-14 23:18:00,20.6,14.8,30.29,NE,52,0.0,2.0,78,0.00,,CLR,0.00,VWS V14.01,2013-01-15 05:18:00,
2013-01-14 23:23:00,20.5,14.7,30.29,NE,37,0.0,2.0,78,0.00,,CLR,0.00,VWS V14.01,2013-01-15 05:23:00,
2013-01-14 23:28:00,20.4,14.6,30.28,NE,38,0.0,2.0,78,0.00,,CLR,0.00,VWS V14.01,2013-01-15 05:28:00,
2013-01-14 23:30:00,19.7,14.3,30.28,NW,314,1.0,2.0,79,0.00,,CLR,0.00,VWS V14.01,2013-01-15 05:30:00,
2013-01-14 23:33:00,20.3,14.6,30.28,NNE,24,0.0,2.0,78,0.00,,CLR,0.00,VWS V14.01,2013-01-15 05:33:00,
2013-01-14 23:38:00,20.3,14.6,30.28,NNE,26,0.0,2.0,78,0.00,,CLR,0.00,VWS V14.01,2013-01-15 05:38:00,
2013-01-14 23:43:00,20.2,14.7,30.28,NNE,17,1.0,2.0,79,0.00,,CLR,0.00,VWS V14.01,2013-01-15 05:43:00,
2013-01-14 23:48:00,20.1,14.6,30.28,NE,54,0.0,2.0,79,0.00,,CLR,0.00,VWS V14.01,2013-01-15 05:48:00,
2013-01-14 23:54:00,20.0,14.6,30.28,NNE,21,0.0,2.0,79,0.00,,CLR,0.00,VWS V14.01,2013-01-15 05:54:00,
2013-01-14 23:59:00,20.0,14.6,30.28,NE,43,0.0,2.0,79,0.00,,CLR,0.00,VWS V14.01,2013-01-15 05:59:00,